Allakaket, AK

10:27 AM AKDT on August 24, 2019 (GMT -0800)
Bettles | | Change Station

Elev 643 ft 66.92 °N, 151.53 °W | Updated 34 minutes ago

Clear
Clear
41 °F
Feels Like 36 °F
N
7
Wind Variable Wind from SE

Today
High -- | Low -- °F
--% Chance of Precip.
Yesterday
High -- | Low -- °F
Precip. -- in
Pressure 29.81 in
Visibility 10.0 miles
Clouds Few 8000 ft
Scattered Clouds 12000 ft
Mostly Cloudy 22000 ft
Windchill 36 °F
Dew Point 29 °F
Humidity 62%
Rainfall 0.00 in
Snow Depth Not available.
6:16 AM 10:07 PM
Last Quarter, 38% visible
METAR PABT 241753Z 14006KT 10SM FEW080 SCT120 BKN220 05/M02 A2978 RMK AO2 SLP094 T00501017 10061 21011 51006
Pressure 29.81 in
Visibility 10.0 miles
Clouds Few 8000 ft
Scattered Clouds 12000 ft
Mostly Cloudy 22000 ft
Windchill 36 °F
Dew Point 29 °F
Humidity 62%
Rainfall 0.00 in
Snow Depth Not available.
6:16 AM 10:07 PM
Last Quarter, 38% visible
METAR PABT 241753Z 14006KT 10SM FEW080 SCT120 BKN220 05/M02 A2978 RMK AO2 SLP094 T00501017 10061 21011 51006

Get Severe Weather Alerts

Thanks for signing up!

Be on the lookout for a verification email in your inbox.

You'll start receiving the daily forecast at 6 AM.

×

10-Day Weather Forecast

Almanac

Astronomy

Aug. 24, 2019 Rise Set
Actual Time
Civil Twilight
Nautical Twilight
Astronomical Twilight
Moon
Length of Visible Light
Length of Day
Tomorrow will be .
, % of the Moon is Illuminated

Today's Extremes

State Highs State Lows

Community

WunderPhotos

Category 6

Welcome to Category 6. This is the collective home for Weather Underground's featured writeups by Dr. Jeff Masters (right), Bob Henson (left), Chris Burt, and other regular contributors.

Nearby

Air Quality

  Air Quality AQ Index Pollutant
Not available.

Snow Depth

Station Depth Elevation

Earthquake Activity

City Distance Mag. Time & Date
Minimum magnitude displayed is 2.5.

Coastal Water Temperatures

Place Temperature

Stations

Nearby Weather Stations

Station Location Temp. Windchill Dew Point Humidity Wind Precip. Elev Updated Type
                   

Watches & Warnings

There are currently no watches in effect.